Time;durP1;ratioP1;P1;durP2;ratioP2;P2;SDS_P1;SDS_P2;PMS_P1;PMS_P2;Temp;Humidity;BMP_temperature;BMP_pressure;BME280_temperature;BME280_humidity;BME280_pressure;Samples;Min_cycle;Max_cycle;Signal;HPM_P1;HPM_P2
2023/05/03 00:00:48;;;;;;;7.80;4.20;;;;;;;8.26;100.00;96059.88;5051750;28;20017;-73
2023/05/03 00:03:14;;;;;;;4.15;3.83;;;;;;;8.24;100.00;96055.72;5050631;28;20037;-72
2023/05/03 00:05:39;;;;;;;6.35;4.28;;;;;;;8.22;100.00;96062.88;5054731;28;20104;-72
2023/05/03 00:08:05;;;;;;;6.25;4.50;;;;;;;8.22;100.00;96058.44;5051420;28;20036;-72
2023/05/03 00:10:30;;;;;;;5.82;4.43;;;;;;;8.15;100.00;96062.50;5047172;28;20081;-73
2023/05/03 00:12:56;;;;;;;4.65;4.28;;;;;;;8.09;100.00;96060.34;5054543;28;20028;-72
2023/05/03 00:15:21;;;;;;;4.78;4.38;;;;;;;8.02;100.00;96062.59;5051180;28;20028;-73
2023/05/03 00:17:47;;;;;;;4.90;4.60;;;;;;;7.99;100.00;96061.03;5048012;28;20400;-72
2023/05/03 00:20:14;;;;;;;4.47;4.10;;;;;;;7.95;100.00;96053.53;5068582;28;20078;-72
2023/05/03 00:22:39;;;;;;;4.68;4.28;;;;;;;7.95;100.00;96053.53;5052403;28;20028;-72
2023/05/03 00:25:07;;;;;;;4.68;4.22;;;;;;;7.90;100.00;96051.28;5045762;28;20025;-72
2023/05/03 00:27:32;;;;;;;4.75;4.32;;;;;;;7.86;100.00;96055.09;5051066;28;20020;-73
2023/05/03 00:29:58;;;;;;;4.80;4.22;;;;;;;7.81;100.00;96046.72;5045367;28;20496;-72
2023/05/03 00:32:23;;;;;;;4.38;4.07;;;;;;;7.78;100.00;96052.19;5054661;28;20024;-72
2023/05/03 00:34:56;;;;;;;4.90;4.60;;;;;;;7.80;100.00;96051.13;5047866;28;20196;-72
2023/05/03 00:37:22;;;;;;;4.70;4.40;;;;;;;7.80;100.00;96050.28;5053942;28;20021;-72
2023/05/03 00:39:48;;;;;;;4.57;4.27;;;;;;;7.79;100.00;96043.38;5008774;28;1168321;-72
2023/05/03 00:42:13;;;;;;;7.70;4.38;;;;;;;7.78;100.00;96054.81;5052996;28;20283;-72
2023/05/03 00:44:38;;;;;;;4.88;4.57;;;;;;;7.71;100.00;96044.78;5051996;28;20056;-73
2023/05/03 00:47:05;;;;;;;4.70;4.28;;;;;;;7.73;100.00;96042.88;5051026;28;20033;-73
2023/05/03 00:49:31;;;;;;;5.75;4.82;;;;;;;7.74;100.00;96043.75;5045527;28;20028;-72
2023/05/03 00:51:58;;;;;;;4.78;4.35;;;;;;;7.73;100.00;96036.78;5051753;28;20033;-72
2023/05/03 00:54:27;;;;;;;6.22;4.63;;;;;;;7.68;100.00;96025.84;5051594;28;20029;-72
2023/05/03 00:56:52;;;;;;;4.65;4.25;;;;;;;7.65;100.00;96033.94;5049159;28;20033;-73
2023/05/03 00:59:18;;;;;;;5.10;4.70;;;;;;;7.60;100.00;96029.88;5052608;28;20017;-72
2023/05/03 01:01:48;;;;;;;4.95;4.40;;;;;;;7.57;100.00;96034.50;5052943;28;20030;-72
2023/05/03 01:04:15;;;;;;;5.28;4.85;;;;;;;7.57;100.00;96030.09;5046558;28;20028;-72
2023/05/03 01:06:51;;;;;;;5.65;4.95;;;;;;;7.55;100.00;96028.53;5050909;28;20112;-72
2023/05/03 01:09:41;;;;;;;5.43;4.90;;;;;;;7.54;100.00;96029.50;5047913;28;20171;-72
2023/05/03 01:12:09;;;;;;;4.60;4.30;;;;;;;7.57;100.00;96022.25;5045141;28;20033;-72
2023/05/03 01:15:07;;;;;;;5.60;5.10;;;;;;;7.51;100.00;96014.81;5047397;28;20033;-72
2023/05/03 01:17:37;;;;;;;5.75;4.57;;;;;;;7.49;100.00;96021.16;5048814;28;20048;-72
2023/05/03 01:20:07;;;;;;;4.57;4.18;;;;;;;7.45;100.00;96018.75;5049602;28;20036;-72
2023/05/03 01:22:55;;;;;;;5.90;4.03;;;;;;;7.43;100.00;96019.81;5050202;28;20496;-73
2023/05/03 01:25:20;;;;;;;4.78;4.38;;;;;;;7.42;100.00;96012.91;5049418;28;20025;-72
2023/05/03 01:27:46;;;;;;;5.35;4.88;;;;;;;7.45;100.00;96015.28;5050028;28;20033;-72
2023/05/03 01:30:12;;;;;;;4.68;4.38;;;;;;;7.45;100.00;96016.16;5048342;28;20021;-73
2023/05/03 01:32:59;;;;;;;5.05;4.63;;;;;;;7.38;100.00;96017.53;5050047;28;20043;-73
2023/05/03 01:35:34;;;;;;;5.38;4.88;;;;;;;7.33;100.00;96017.03;5053171;28;20025;-72
2023/05/03 01:38:01;;;;;;;5.45;5.05;;;;;;;7.28;100.00;96006.91;5051171;28;20064;-73
2023/05/03 01:40:28;;;;;;;5.45;5.05;;;;;;;7.28;100.00;96012.13;5048450;28;20379;-72
2023/05/03 01:42:55;;;;;;;5.60;5.10;;;;;;;7.29;100.00;96015.59;5049510;28;20021;-72
2023/05/03 01:45:21;;;;;;;6.20;5.80;;;;;;;7.29;100.00;96016.47;5048143;28;20047;-72
2023/05/03 01:47:46;;;;;;;6.60;6.00;;;;;;;7.24;100.00;96015.13;5049817;28;20100;-72
2023/05/03 01:50:12;;;;;;;5.63;5.13;;;;;;;7.23;100.00;96019.50;5051425;28;20023;-72
2023/05/03 01:52:37;;;;;;;6.00;5.50;;;;;;;7.31;100.00;96018.94;5052319;28;20036;-72
2023/05/03 01:55:03;;;;;;;8.60;6.22;;;;;;;7.31;100.00;96030.28;5048802;28;20105;-72
2023/05/03 01:57:28;;;;;;;6.22;5.82;;;;;;;7.23;100.00;96029.16;5050772;28;20021;-72
2023/05/03 01:59:53;;;;;;;10.82;5.70;;;;;;;7.15;100.00;96027.09;5051639;28;20032;-72
2023/05/03 02:02:19;;;;;;;13.48;5.80;;;;;;;7.17;100.00;96033.06;5052638;28;20052;-72
2023/05/03 02:04:45;;;;;;;5.70;5.30;;;;;;;7.17;100.00;96031.25;5052601;28;20024;-72
2023/05/03 02:07:10;;;;;;;5.90;5.50;;;;;;;7.21;100.00;96033.69;5051932;28;20021;-72
2023/05/03 02:09:35;;;;;;;6.57;6.07;;;;;;;7.16;100.00;96034.81;5048758;28;20448;-73
2023/05/03 02:12:01;;;;;;;6.60;6.10;;;;;;;7.08;100.00;96033.75;5049353;28;20025;-72
2023/05/03 02:14:26;;;;;;;5.97;5.50;;;;;;;7.01;100.00;96030.72;5042590;28;20032;-73
2023/05/03 02:16:54;;;;;;;5.75;5.25;;;;;;;6.94;100.00;96037.34;5049993;28;20473;-72
2023/05/03 02:19:20;;;;;;;5.35;5.00;;;;;;;6.94;100.00;96029.47;5051260;28;20078;-73
2023/05/03 02:21:45;;;;;;;5.85;5.30;;;;;;;6.95;100.00;96024.16;5051647;28;20025;-72
2023/05/03 02:24:11;;;;;;;5.75;5.25;;;;;;;6.93;100.00;96035.66;5052068;28;20029;-72
2023/05/03 02:26:36;;;;;;;6.07;5.57;;;;;;;6.87;100.00;96034.34;5052379;28;20063;-72
2023/05/03 02:29:02;;;;;;;5.57;5.13;;;;;;;6.82;100.00;96041.69;5050797;28;20025;-72
2023/05/03 02:31:28;;;;;;;5.78;5.20;;;;;;;6.71;100.00;96047.66;5050136;28;20481;-73
2023/05/03 02:33:54;;;;;;;4.45;4.25;;;;;;;6.67;100.00;96041.00;5048238;28;20048;-72
2023/05/03 02:36:19;;;;;;;5.05;4.65;;;;;;;6.67;100.00;96043.59;5048972;28;20057;-72
2023/05/03 02:38:46;;;;;;;5.43;4.95;;;;;;;6.69;100.00;96044.34;5053227;28;20041;-72
2023/05/03 02:41:12;;;;;;;5.75;5.35;;;;;;;6.63;100.00;96047.41;5052316;28;20036;-72
2023/05/03 02:43:37;;;;;;;4.97;4.68;;;;;;;6.64;100.00;96039.44;5051996;28;20032;-73
2023/05/03 02:46:02;;;;;;;5.85;5.18;;;;;;;6.64;100.00;96042.06;5046962;28;20022;-72
2023/05/03 02:48:28;;;;;;;5.38;4.90;;;;;;;6.60;100.00;96037.97;5050485;28;20492;-72
2023/05/03 02:50:53;;;;;;;6.45;5.85;;;;;;;6.59;100.00;96038.91;5052291;28;20026;-72
2023/05/03 02:53:19;;;;;;;10.38;5.38;;;;;;;6.54;100.00;96039.25;5052661;28;20116;-72
2023/05/03 02:55:45;;;;;;;6.43;5.93;;;;;;;6.52;100.00;96035.94;5066949;28;20021;-72
2023/05/03 02:58:10;;;;;;;6.05;5.55;;;;;;;6.55;100.00;96040.94;5045391;28;20052;-72
2023/05/03 03:00:36;;;;;;;5.60;4.95;;;;;;;6.53;100.00;96037.59;5054932;28;20056;-72
2023/05/03 03:03:01;;;;;;;5.80;5.20;;;;;;;6.52;100.00;96040.31;5056129;28;20040;-72
2023/05/03 03:05:27;;;;;;;5.60;5.10;;;;;;;6.55;100.00;96038.31;5049757;28;20024;-72
2023/05/03 03:07:53;;;;;;;5.57;5.18;;;;;;;6.57;100.00;96038.19;5054904;28;20055;-72
2023/05/03 03:10:19;;;;;;;5.38;4.97;;;;;;;6.51;100.00;96034.22;5053819;28;20505;-72
2023/05/03 03:12:44;;;;;;;5.78;5.38;;;;;;;6.50;100.00;96037.78;5052644;28;20036;-74
2023/05/03 03:15:10;;;;;;;6.85;5.50;;;;;;;6.47;100.00;96031.94;5053707;28;20071;-75
2023/05/03 03:17:38;;;;;;;5.47;4.97;;;;;;;6.40;100.00;96029.75;5055340;28;20116;-73
2023/05/03 03:20:10;;;;;;;4.72;4.38;;;;;;;6.36;100.00;96030.09;5054425;28;20020;-74
2023/05/03 03:22:36;;;;;;;5.38;4.97;;;;;;;6.37;100.00;96035.19;5056200;28;20021;-74
2023/05/03 03:25:03;;;;;;;5.38;4.97;;;;;;;6.30;100.00;96033.97;5054907;28;20812;-74
2023/05/03 03:27:28;;;;;;;5.63;4.95;;;;;;;6.29;100.00;96032.28;5069504;28;20021;-74
2023/05/03 03:29:54;;;;;;;5.72;5.28;;;;;;;6.28;100.00;96023.59;5056963;28;20104;-74
2023/05/03 03:32:20;;;;;;;6.00;5.60;;;;;;;6.28;100.00;96025.41;5046382;28;20374;-74
2023/05/03 03:34:45;;;;;;;5.35;5.05;;;;;;;6.25;100.00;96034.28;5051698;28;20025;-74
2023/05/03 03:37:11;;;;;;;5.22;4.82;;;;;;;6.26;100.00;96041.19;5053821;28;20048;-74
2023/05/03 03:39:38;;;;;;;6.70;5.13;;;;;;;6.27;100.00;96037.63;5051735;28;20578;-74
2023/05/03 03:42:04;;;;;;;5.45;5.15;;;;;;;6.24;100.00;96037.00;5052325;28;20029;-74
2023/05/03 03:44:30;;;;;;;8.00;5.00;;;;;;;6.23;100.00;96041.38;5052937;28;20481;-74
2023/05/03 03:46:55;;;;;;;5.50;5.00;;;;;;;6.25;100.00;96038.69;5054599;28;20047;-74
2023/05/03 03:49:20;;;;;;;5.22;4.93;;;;;;;6.21;100.00;96038.06;5054120;28;20044;-74
2023/05/03 03:51:46;;;;;;;5.57;5.20;;;;;;;6.23;100.00;96044.00;5050859;28;20017;-74
2023/05/03 03:54:11;;;;;;;8.20;5.30;;;;;;;6.24;100.00;96043.06;5052586;28;20186;-74
2023/05/03 03:56:37;;;;;;;5.30;4.90;;;;;;;6.19;100.00;96039.94;5053008;28;20398;-74
2023/05/03 03:59:02;;;;;;;5.80;5.32;;;;;;;6.18;100.00;96040.03;5051766;28;20492;-74
2023/05/03 04:01:27;;;;;;;5.50;5.10;;;;;;;6.09;100.00;96044.16;5049142;28;20075;-74
2023/05/03 04:03:53;;;;;;;5.15;4.78;;;;;;;6.08;100.00;96042.44;5046069;28;20120;-74
2023/05/03 04:06:18;;;;;;;6.07;5.10;;;;;;;6.05;100.00;96046.13;5053692;28;20063;-74
2023/05/03 04:08:43;;;;;;;6.03;5.50;;;;;;;6.04;100.00;96046.22;5053059;28;20057;-73
2023/05/03 04:11:12;;;;;;;5.82;5.00;;;;;;;6.03;100.00;96045.41;5054576;28;20031;-73
2023/05/03 04:13:38;;;;;;;6.75;5.55;;;;;;;6.01;100.00;96050.72;5053742;28;20017;-72
2023/05/03 04:16:07;;;;;;;5.90;5.50;;;;;;;6.02;100.00;96041.94;5055249;28;20029;-72
2023/05/03 04:18:32;;;;;;;5.93;5.38;;;;;;;6.01;100.00;96042.88;5033012;28;20086;-73
2023/05/03 04:20:58;;;;;;;6.03;5.63;;;;;;;5.95;100.00;96048.50;5052210;28;20021;-73
2023/05/03 04:23:23;;;;;;;6.38;5.97;;;;;;;5.90;100.00;96050.59;5054303;28;20047;-74
2023/05/03 04:25:49;;;;;;;7.85;6.53;;;;;;;5.91;100.00;96047.03;5052341;28;20024;-73
2023/05/03 04:28:14;;;;;;;8.82;6.13;;;;;;;5.93;100.00;96045.16;5053919;28;20017;-74
2023/05/03 04:30:42;;;;;;;6.55;5.85;;;;;;;5.91;100.00;96038.34;5052703;28;20017;-73
2023/05/03 04:33:08;;;;;;;7.05;6.45;;;;;;;5.87;100.00;96048.19;5050537;28;20144;-73
2023/05/03 04:35:34;;;;;;;7.45;6.95;;;;;;;5.90;100.00;96054.97;5052582;28;20367;-73
2023/05/03 04:38:00;;;;;;;8.52;7.90;;;;;;;5.91;100.00;96052.25;5070115;28;20051;-73
2023/05/03 04:40:25;;;;;;;9.63;8.75;;;;;;;5.90;100.00;96054.97;5050923;28;20021;-73
2023/05/03 04:42:51;;;;;;;10.60;9.90;;;;;;;5.89;100.00;96059.38;5054024;28;20100;-73
2023/05/03 04:45:17;;;;;;;9.10;7.15;;;;;;;5.89;100.00;96054.16;5053532;28;20406;-73
2023/05/03 04:47:43;;;;;;;7.53;7.10;;;;;;;5.85;100.00;96052.66;5052422;28;20440;-72
2023/05/03 04:50:09;;;;;;;7.07;6.47;;;;;;;5.82;100.00;96053.72;5051866;28;20037;-73
2023/05/03 04:52:35;;;;;;;6.70;6.15;;;;;;;5.82;100.00;96058.09;5054635;28;20021;-73
2023/05/03 04:55:01;;;;;;;7.57;6.88;;;;;;;5.83;100.00;96058.00;5049744;28;20393;-73
2023/05/03 04:57:26;;;;;;;7.70;7.18;;;;;;;5.88;100.00;96050.69;5048964;28;20025;-73
2023/05/03 04:59:54;;;;;;;7.68;6.90;;;;;;;5.91;100.00;96057.50;5052261;28;20028;-73
2023/05/03 05:02:20;;;;;;;6.88;6.22;;;;;;;5.94;100.00;96064.25;5048577;28;20056;-73
2023/05/03 05:04:45;;;;;;;7.35;6.65;;;;;;;6.01;100.00;96062.97;5054252;28;20053;-73
2023/05/03 05:07:11;;;;;;;6.57;6.03;;;;;;;6.07;100.00;96066.91;5051456;28;20035;-73
2023/05/03 05:09:37;;;;;;;6.78;6.38;;;;;;;6.07;100.00;96065.16;5051662;28;20013;-73
2023/05/03 05:12:03;;;;;;;7.22;6.63;;;;;;;6.06;100.00;96067.84;5053865;28;20377;-73
2023/05/03 05:14:30;;;;;;;7.32;6.70;;;;;;;6.08;100.00;96071.19;5050188;28;20025;-73
2023/05/03 05:16:55;;;;;;;7.15;6.55;;;;;;;6.07;100.00;96069.53;5046213;28;20032;-73
2023/05/03 05:19:21;;;;;;;6.85;6.20;;;;;;;6.09;100.00;96072.91;5048895;28;20389;-73
2023/05/03 05:21:47;;;;;;;7.05;6.43;;;;;;;6.14;100.00;96076.84;5068742;28;20477;-73
2023/05/03 05:24:12;;;;;;;6.50;6.10;;;;;;;6.18;100.00;96077.50;5049549;28;20485;-73
2023/05/03 05:26:41;;;;;;;7.53;6.82;;;;;;;6.22;100.00;96076.31;5067111;28;20025;-73
2023/05/03 05:29:07;;;;;;;10.10;6.72;;;;;;;6.25;100.00;96083.97;5051628;28;20045;-73
2023/05/03 05:31:33;;;;;;;7.03;6.53;;;;;;;6.24;100.00;96084.06;5053025;28;20119;-73
2023/05/03 05:33:59;;;;;;;8.70;6.80;;;;;;;6.20;100.00;96078.22;5053959;28;20071;-73
2023/05/03 05:36:24;;;;;;;7.25;6.50;;;;;;;6.26;100.00;96075.16;5052687;28;20025;-73
2023/05/03 05:38:50;;;;;;;13.15;7.03;;;;;;;6.36;100.00;96080.59;5051341;28;20056;-73
2023/05/03 05:41:15;;;;;;;9.27;6.93;;;;;;;6.52;100.00;96083.00;5052852;28;20025;-73
2023/05/03 05:43:41;;;;;;;9.70;7.35;;;;;;;6.71;100.00;96082.53;5051501;28;20476;-73
2023/05/03 05:46:07;;;;;;;8.38;7.88;;;;;;;6.90;100.00;96077.78;5052308;28;20404;-73
2023/05/03 05:48:32;;;;;;;11.20;10.40;;;;;;;7.12;100.00;96077.09;5054388;28;20024;-73
2023/05/03 05:50:57;;;;;;;12.23;11.32;;;;;;;7.31;100.00;96073.94;5052443;28;20017;-73
2023/05/03 05:53:23;;;;;;;10.52;8.70;;;;;;;7.52;100.00;96086.41;5052195;28;20043;-73
2023/05/03 05:55:49;;;;;;;7.28;6.78;;;;;;;7.72;100.00;96080.53;5051757;28;20025;-73
2023/05/03 05:58:15;;;;;;;8.27;7.32;;;;;;;7.90;100.00;96080.09;5046816;28;20025;-74
2023/05/03 06:00:40;;;;;;;8.02;7.47;;;;;;;8.14;100.00;96087.06;5050025;28;20021;-73
2023/05/03 06:03:06;;;;;;;6.95;6.35;;;;;;;8.29;100.00;96091.16;5044200;28;20080;-73
2023/05/03 06:05:31;;;;;;;4.93;4.63;;;;;;;8.43;100.00;96083.97;5053138;28;20017;-73
2023/05/03 06:07:57;;;;;;;6.07;4.78;;;;;;;8.54;100.00;96077.94;5051624;28;20025;-73
2023/05/03 06:10:22;;;;;;;5.18;4.43;;;;;;;8.72;100.00;96075.63;5049249;28;20913;-73
2023/05/03 06:12:48;;;;;;;5.70;4.80;;;;;;;8.96;100.00;96083.38;5045200;28;20032;-73
2023/05/03 06:15:13;;;;;;;4.68;4.38;;;;;;;9.16;100.00;96073.88;5050600;28;20056;-73
2023/05/03 06:17:39;;;;;;;4.25;3.95;;;;;;;9.36;98.84;96074.06;5047773;28;20060;-72
2023/05/03 06:20:05;;;;;;;4.00;3.75;;;;;;;9.54;97.15;96074.38;5051497;28;20024;-73
2023/05/03 06:22:30;;;;;;;4.10;3.80;;;;;;;9.71;96.40;96072.97;5051694;28;20029;-73
2023/05/03 06:24:56;;;;;;;4.32;3.90;;;;;;;9.89;94.21;96061.88;5052438;28;20492;-73
2023/05/03 06:27:22;;;;;;;3.40;3.20;;;;;;;10.11;92.88;96057.44;5056498;28;20024;-74
2023/05/03 06:29:48;;;;;;;3.55;3.28;;;;;;;10.34;89.46;96055.47;5056825;28;20042;-73
2023/05/03 06:32:14;;;;;;;7.72;3.50;;;;;;;10.56;87.81;96062.41;5070847;28;20028;-75
2023/05/03 06:34:40;;;;;;;3.58;3.28;;;;;;;10.85;86.67;96061.66;5057050;28;20024;-73
2023/05/03 06:37:05;;;;;;;4.78;3.22;;;;;;;11.13;84.74;96064.47;5050927;28;20488;-77
2023/05/03 06:39:30;;;;;;;3.28;3.05;;;;;;;11.37;82.35;96054.53;5053559;28;20045;-74
2023/05/03 06:41:56;;;;;;;3.30;2.90;;;;;;;11.60;79.08;96055.06;5051296;28;20075;-72
2023/05/03 06:44:22;;;;;;;3.08;2.85;;;;;;;11.66;80.58;96058.97;5050807;28;20548;-72
2023/05/03 06:46:47;;;;;;;9.27;3.00;;;;;;;11.95;80.56;96053.66;5064717;28;20469;-72
2023/05/03 06:49:13;;;;;;;5.03;3.20;;;;;;;12.29;80.15;96050.56;5055027;28;20120;-72
2023/05/03 06:51:38;;;;;;;3.08;2.88;;;;;;;12.52;77.57;96050.22;5055189;28;20090;-72
2023/05/03 06:54:08;;;;;;;3.90;2.97;;;;;;;12.67;76.60;96055.00;5054333;28;20397;-73
2023/05/03 06:56:37;;;;;;;2.90;2.70;;;;;;;13.08;75.19;96050.19;5054138;28;20462;-73
2023/05/03 06:59:03;;;;;;;2.85;2.65;;;;;;;13.51;72.49;96053.13;5054011;28;20485;-72
2023/05/03 07:01:30;;;;;;;2.58;2.47;;;;;;;13.88;69.69;96044.16;5053331;28;20025;-72
2023/05/03 07:03:56;;;;;;;2.80;2.65;;;;;;;14.25;67.61;96042.25;5054738;28;20067;-71
2023/05/03 07:06:24;;;;;;;2.70;2.60;;;;;;;14.70;66.74;96035.03;5049517;28;20029;-71
2023/05/03 07:08:51;;;;;;;2.78;2.67;;;;;;;14.59;65.63;96030.84;5048560;28;20033;-71
2023/05/03 07:11:17;;;;;;;2.67;2.58;;;;;;;15.18;64.91;96040.69;5054882;28;20017;-71
2023/05/03 07:13:43;;;;;;;3.28;3.08;;;;;;;15.40;62.82;96034.91;5052521;28;20027;-71
2023/05/03 07:16:08;;;;;;;3.30;3.10;;;;;;;15.55;62.55;96035.09;5049659;28;20029;-71
2023/05/03 07:18:34;;;;;;;5.95;3.38;;;;;;;15.99;61.97;96032.13;5054709;28;20028;-72
2023/05/03 07:21:04;;;;;;;4.13;3.15;;;;;;;16.36;60.35;96032.59;5053632;28;20489;-70
2023/05/03 07:23:30;;;;;;;3.83;3.53;;;;;;;16.75;58.63;96033.63;5050455;28;20025;-71
2023/05/03 07:25:55;;;;;;;3.63;3.30;;;;;;;16.86;57.92;96027.09;5050413;28;20024;-70
2023/05/03 07:28:20;;;;;;;3.42;3.22;;;;;;;17.24;56.35;96023.78;5053326;28;20025;-71
2023/05/03 07:30:46;;;;;;;3.45;2.83;;;;;;;17.73;55.24;96023.41;5050164;28;20103;-70
2023/05/03 07:33:12;;;;;;;3.15;2.85;;;;;;;18.07;55.61;96024.00;5050877;28;20072;-70
2023/05/03 07:35:37;;;;;;;3.65;3.15;;;;;;;18.52;53.51;96017.88;5051895;28;20035;-70
2023/05/03 07:38:03;;;;;;;3.80;3.05;;;;;;;18.57;48.56;96016.31;5050461;28;20021;-70
2023/05/03 07:40:31;;;;;;;6.68;2.92;;;;;;;18.91;49.64;96011.41;5052562;28;20043;-70
2023/05/03 07:42:58;;;;;;;2.85;2.65;;;;;;;19.30;48.88;96012.06;5052591;28;20045;-70
2023/05/03 07:45:23;;;;;;;3.63;3.30;;;;;;;18.73;49.86;96011.81;5054730;28;20017;-70
2023/05/03 07:47:49;;;;;;;3.63;2.92;;;;;;;18.60;50.64;96010.59;5049784;28;20028;-70
2023/05/03 07:50:14;;;;;;;3.10;2.90;;;;;;;19.06;50.54;96003.41;5053547;28;20040;-70
2023/05/03 07:52:42;;;;;;;2.90;2.70;;;;;;;19.01;48.73;96009.31;5054888;28;20060;-70
2023/05/03 07:55:08;;;;;;;4.07;3.20;;;;;;;18.83;49.08;96004.34;5052447;28;20028;-70
2023/05/03 07:57:33;;;;;;;3.00;2.80;;;;;;;19.68;47.42;96008.34;5051715;28;20106;-70
2023/05/03 07:59:59;;;;;;;2.83;2.67;;;;;;;19.36;46.14;96002.50;5050635;28;20029;-70
2023/05/03 08:02:25;;;;;;;2.80;2.60;;;;;;;19.20;48.74;96014.22;5049819;28;20383;-71
2023/05/03 08:04:50;;;;;;;4.15;2.97;;;;;;;19.90;46.89;96012.66;5051520;28;20405;-71
2023/05/03 08:07:16;;;;;;;3.08;2.78;;;;;;;20.02;45.60;96013.00;5051801;28;20096;-70
2023/05/03 08:09:42;;;;;;;3.10;2.60;;;;;;;20.17;44.72;96020.06;5054682;28;20020;-71
2023/05/03 08:12:07;;;;;;;4.72;2.72;;;;;;;20.09;45.14;96017.56;5051649;28;20451;-70
2023/05/03 08:14:33;;;;;;;3.90;3.08;;;;;;;19.38;46.28;96011.97;5053761;28;20045;-70
2023/05/03 08:16:59;;;;;;;4.47;2.88;;;;;;;19.26;47.39;96013.47;5050723;28;20129;-70
2023/05/03 08:19:25;;;;;;;2.83;2.70;;;;;;;19.43;46.34;96019.38;5054789;28;20499;-70
2023/05/03 08:21:53;;;;;;;3.00;2.80;;;;;;;19.35;46.01;96017.69;5048753;28;20108;-70
2023/05/03 08:24:19;;;;;;;3.33;3.13;;;;;;;19.37;46.30;96020.16;5053137;28;20075;-70
2023/05/03 08:26:47;;;;;;;3.28;3.08;;;;;;;19.41;45.79;96022.28;5053019;28;20032;-70
2023/05/03 08:29:15;;;;;;;3.15;2.95;;;;;;;18.80;48.44;96015.38;5052615;28;20036;-70
2023/05/03 08:31:41;;;;;;;3.47;3.20;;;;;;;18.67;48.74;96015.19;5053936;28;20028;-70
2023/05/03 08:34:09;;;;;;;4.68;3.40;;;;;;;18.63;47.99;96008.59;5052673;28;20021;-70
2023/05/03 08:36:34;;;;;;;3.05;2.83;;;;;;;18.76;47.80;96008.75;5053178;28;20527;-70
2023/05/03 08:39:04;;;;;;;3.20;3.00;;;;;;;19.15;47.58;96015.63;5051662;28;20048;-71
2023/05/03 08:41:31;;;;;;;5.28;2.72;;;;;;;19.14;47.42;96018.47;5050162;28;20079;-69
2023/05/03 08:43:58;;;;;;;3.45;2.90;;;;;;;19.37;45.46;96010.31;5051831;28;20032;-70
2023/05/03 08:46:26;;;;;;;4.80;2.92;;;;;;;19.26;47.24;96014.31;5050514;28;20019;-70
2023/05/03 08:48:53;;;;;;;6.70;5.13;;;;;;;19.06;48.17;96014.06;5050538;28;20056;-69
2023/05/03 08:51:21;;;;;;;10.32;6.20;;;;;;;19.43;47.58;96014.88;5053212;28;20021;-69
2023/05/03 08:53:47;;;;;;;22.30;10.82;;;;;;;19.75;47.19;96010.03;5052846;28;20025;-70
2023/05/03 08:56:31;;;;;;;3.80;2.90;;;;;;;19.75;45.66;96014.56;5049038;28;20032;-69
2023/05/03 08:59:03;;;;;;;6.20;3.63;;;;;;;20.13;44.74;96000.94;5048702;28;20093;-69
2023/05/03 09:01:29;;;;;;;4.05;2.63;;;;;;;20.01;45.37;96011.34;5052421;28;20054;-70
2023/05/03 09:03:55;;;;;;;2.67;2.20;;;;;;;20.42;43.03;96011.59;5052951;28;20031;-69
2023/05/03 09:06:24;;;;;;;2.78;2.50;;;;;;;19.99;44.50;96007.19;5049625;28;20443;-70
2023/05/03 09:08:50;;;;;;;3.05;2.60;;;;;;;19.80;46.85;96012.16;5049465;28;20727;-70
2023/05/03 09:11:20;;;;;;;4.70;2.60;;;;;;;19.85;44.35;96012.38;5051491;28;20021;-70
2023/05/03 09:13:45;;;;;;;2.67;2.47;;;;;;;20.24;41.59;96006.75;5052428;28;20094;-71
2023/05/03 09:16:25;;;;;;;2.95;2.75;;;;;;;19.58;45.20;96003.34;5053158;28;20036;-70
2023/05/03 09:19:07;;;;;;;2.35;2.20;;;;;;;19.94;42.29;96005.09;5047679;28;20030;-66
2023/05/03 09:21:32;;;;;;;2.85;2.65;;;;;;;19.63;44.79;95995.56;5048774;28;20051;-66
2023/05/03 09:23:58;;;;;;;4.90;2.70;;;;;;;19.27;44.85;95997.28;5047884;28;20104;-66
2023/05/03 09:26:33;;;;;;;3.17;2.35;;;;;;;19.95;44.74;96003.25;5051589;28;20063;-68
2023/05/03 09:29:00;;;;;;;2.47;2.33;;;;;;;20.70;41.45;96003.53;5045702;28;20037;-69
2023/05/03 09:31:28;;;;;;;3.45;2.40;;;;;;;20.49;41.57;95995.59;5045083;28;20445;-68
2023/05/03 09:33:54;;;;;;;3.58;2.55;;;;;;;20.38;41.44;96000.47;5049554;28;20028;-68
2023/05/03 09:36:20;;;;;;;2.25;2.05;;;;;;;20.39;42.42;96004.81;5048195;28;20029;-69
2023/05/03 09:38:45;;;;;;;2.30;2.00;;;;;;;20.80;43.13;96005.88;5048691;28;20103;-68
2023/05/03 09:41:11;;;;;;;2.53;2.28;;;;;;;21.57;39.40;96000.31;5047906;28;20064;-69
2023/05/03 09:43:48;;;;;;;2.40;2.20;;;;;;;20.81;40.56;96006.72;5051111;28;20025;-69
2023/05/03 09:46:14;;;;;;;2.40;2.20;;;;;;;21.29;40.54;96004.00;5050160;28;20025;-69
2023/05/03 09:48:40;;;;;;;2.30;2.20;;;;;;;21.45;39.27;96001.97;5051224;28;20647;-66
2023/05/03 09:51:07;;;;;;;2.30;1.98;;;;;;;21.46;39.12;95999.06;5049788;28;20022;-67
2023/05/03 09:53:33;;;;;;;2.58;2.33;;;;;;;21.26;38.29;96001.72;5052097;28;20472;-67
2023/05/03 09:56:02;;;;;;;2.15;2.05;;;;;;;20.69;40.44;96001.06;5049758;28;20098;-71
2023/05/03 09:58:31;;;;;;;2.13;2.03;;;;;;;20.63;42.30;95994.66;5048761;28;20490;-71
2023/05/03 10:00:57;;;;;;;2.38;2.25;;;;;;;21.53;37.43;95987.53;5053381;28;20124;-71
2023/05/03 10:03:38;;;;;;;3.10;2.50;;;;;;;21.38;38.47;95993.91;5058249;28;20052;-72
2023/05/03 10:06:08;;;;;;;1.80;1.70;;;;;;;21.51;36.50;95984.25;5056269;28;20088;-71
2023/05/03 10:08:40;;;;;;;1.95;1.85;;;;;;;21.26;39.16;95995.53;5055832;28;20025;-71
2023/05/03 10:11:08;;;;;;;2.42;2.22;;;;;;;20.89;39.40;95990.47;5053563;28;20453;-70
2023/05/03 10:13:35;;;;;;;2.25;2.05;;;;;;;21.72;38.27;95991.31;5053949;28;20508;-70
2023/05/03 10:16:05;;;;;;;2.50;2.30;;;;;;;21.74;37.76;95979.34;5053865;28;20033;-68
2023/05/03 10:18:33;;;;;;;2.17;2.00;;;;;;;22.91;34.81;95978.97;5055761;28;20115;-69
2023/05/03 10:21:08;;;;;;;2.40;2.20;;;;;;;21.97;37.97;95975.44;5050132;28;20029;-71
2023/05/03 10:23:34;;;;;;;2.20;2.10;;;;;;;22.96;37.03;95973.78;5050010;28;20054;-71
2023/05/03 10:26:10;;;;;;;2.10;1.92;;;;;;;22.66;36.98;95969.75;5057920;28;20155;-70
2023/05/03 10:28:38;;;;;;;4.13;1.90;;;;;;;22.64;36.12;95973.69;5056064;28;20093;-69
2023/05/03 10:31:04;;;;;;;1.58;1.58;;;;;;;22.72;34.84;95973.47;5057907;28;20025;-69
2023/05/03 10:33:35;;;;;;;1.73;1.63;;;;;;;22.11;36.50;95978.09;5053762;28;20033;-69
2023/05/03 10:36:06;;;;;;;3.60;2.20;;;;;;;22.58;38.33;95970.00;5048152;28;20107;-69
2023/05/03 10:38:32;;;;;;;2.10;1.98;;;;;;;23.07;36.61;95970.41;5054852;28;20040;-68
2023/05/03 10:40:59;;;;;;;2.00;1.80;;;;;;;22.81;38.64;95972.19;5050118;28;20531;-68
2023/05/03 10:43:28;;;;;;;2.00;1.90;;;;;;;23.15;36.99;95970.16;5055140;28;20108;-69
2023/05/03 10:45:58;;;;;;;2.10;2.00;;;;;;;23.22;35.20;95956.72;5056020;28;20028;-68
2023/05/03 10:48:24;;;;;;;2.50;2.03;;;;;;;23.37;35.44;95967.19;5054505;28;20029;-68
2023/05/03 10:50:51;;;;;;;1.90;1.80;;;;;;;24.19;33.46;95973.59;5053125;28;20072;-70
2023/05/03 10:53:39;;;;;;;2.65;2.10;;;;;;;23.80;34.28;95979.06;5069951;28;20051;-71
2023/05/03 10:56:10;;;;;;;2.20;1.77;;;;;;;23.83;36.71;95970.56;5055890;28;20035;-70
2023/05/03 10:58:42;;;;;;;3.15;1.90;;;;;;;24.04;33.54;95965.88;5046243;28;20410;-69
2023/05/03 11:01:13;;;;;;;4.45;2.13;;;;;;;23.73;35.37;95970.25;5054093;28;20028;-69
2023/05/03 11:04:12;;;;;;;2.38;1.88;;;;;;;24.59;33.25;95969.69;5068472;28;20039;-69
2023/05/03 11:06:40;;;;;;;2.00;1.90;;;;;;;24.05;34.49;95961.31;5054349;28;20393;-69
2023/05/03 11:09:07;;;;;;;4.15;2.13;;;;;;;23.99;35.44;95971.91;5050284;28;20029;-69
2023/05/03 11:11:35;;;;;;;2.55;2.05;;;;;;;24.28;35.19;95966.91;5067986;28;20108;-69
2023/05/03 11:14:02;;;;;;;2.30;2.10;;;;;;;24.36;33.74;95962.25;5053596;28;20054;-68
2023/05/03 11:16:28;;;;;;;2.25;2.08;;;;;;;24.70;35.67;95973.50;5052423;28;20466;-69
2023/05/03 11:18:54;;;;;;;2.10;1.90;;;;;;;24.20;37.38;95969.84;5052070;28;20025;-68
2023/05/03 11:21:20;;;;;;;3.50;2.00;;;;;;;25.07;35.56;95964.56;5052148;28;20543;-69
2023/05/03 11:23:45;;;;;;;2.08;1.90;;;;;;;25.74;35.03;95956.34;5035012;28;20036;-69
2023/05/03 11:26:11;;;;;;;1.80;1.70;;;;;;;25.83;33.66;95956.03;5053394;28;20060;-69
2023/05/03 11:28:38;;;;;;;2.10;2.00;;;;;;;26.58;31.56;95957.22;5052036;28;20116;-69
2023/05/03 11:31:05;;;;;;;3.17;2.00;;;;;;;26.62;31.92;95959.44;5054670;28;20025;-69
2023/05/03 11:33:33;;;;;;;5.53;1.98;;;;;;;26.71;32.67;95953.41;5052872;28;20092;-69